createdAt,value
2022-10-05T00:00:13.126Z,68.07
2022-10-05T00:03:11.151Z,67.55
2022-10-05T00:06:53.321Z,67.39
2022-10-05T00:13:54.924Z,67.87
2022-10-05T01:14:11.815Z,68.33
2022-10-05T01:59:52.062Z,68.26
2022-10-05T02:03:22.438Z,67.51
2022-10-05T02:07:11.087Z,68.31
2022-10-05T02:18:18.879Z,67.89
2022-10-05T06:42:11.001Z,69.36
2022-10-05T06:47:49.255Z,66.91
2022-10-05T06:50:45.976Z,66.86
2022-10-05T06:53:54.673Z,67.56
2022-10-05T07:03:37.204Z,68.34
2022-10-05T07:06:18.196Z,67.38
2022-10-05T07:09:25.372Z,68.18
2022-10-05T07:12:23.151Z,68.28
2022-10-05T07:15:03.127Z,66.18
2022-10-05T07:18:07.984Z,66.71
2022-10-05T07:20:56.356Z,66.89
2022-10-05T07:23:41.348Z,67.69
2022-10-05T07:26:22.791Z,67.99
2022-10-05T07:29:08.232Z,68.13
2022-10-05T07:31:43.324Z,68.59
2022-10-05T07:34:23.821Z,68.15
2022-10-05T07:37:11.145Z,68.45
2022-10-05T07:40:00.242Z,67.54
2022-10-05T07:42:58.375Z,68.68
2022-10-05T07:45:32.365Z,67.78
2022-10-05T07:48:04.834Z,66.98
2022-10-05T07:50:44.112Z,66.27
2022-10-05T07:53:16.874Z,65.32
2022-10-05T07:56:03.800Z,66.01
2022-10-05T07:58:40.596Z,65.94
2022-10-05T08:01:12.010Z,66.22
2022-10-05T08:03:47.330Z,66.70
2022-10-05T08:06:23.017Z,66.52
2022-10-05T08:08:57.779Z,66.64
2022-10-05T08:11:59.257Z,67.06
2022-10-05T08:14:41.448Z,66.50
2022-10-05T08:17:13.118Z,66.23
2022-10-05T08:19:50.562Z,66.39
2022-10-05T08:22:39.842Z,66.70
2022-10-05T08:25:25.133Z,65.90
2022-10-05T08:28:24.037Z,66.21
2022-10-05T08:31:26.670Z,65.88
2022-10-05T08:36:55.911Z,64.93
2022-10-05T08:39:28.393Z,63.74
2022-10-05T08:42:27.679Z,63.70
2022-10-05T08:45:02.969Z,62.98
2022-10-05T08:51:01.120Z,61.18
2022-10-05T08:53:45.059Z,60.51
2022-10-05T08:56:39.374Z,60.33
2022-10-05T09:03:42.115Z,59.49
2022-10-05T09:06:52.083Z,60.12
2022-10-05T09:10:01.485Z,60.35
2022-10-05T09:12:52.900Z,60.06
2022-10-05T09:15:38.494Z,58.86
2022-10-05T09:18:36.357Z,59.12
2022-10-05T09:21:33.480Z,59.77
2022-10-05T09:24:49.549Z,58.09
2022-10-05T09:27:21.922Z,57.44
2022-10-05T09:30:44.085Z,58.26
2022-10-05T09:33:46.644Z,58.71
2022-10-05T09:40:01.502Z,57.54
2022-10-05T09:42:47.457Z,56.26
2022-10-05T09:45:24.184Z,56.41
2022-10-05T09:48:23.875Z,57.02
2022-10-05T09:51:01.237Z,55.58
2022-10-05T09:53:57.482Z,54.20
2022-10-05T09:56:35.343Z,52.40
2022-10-05T09:59:21.914Z,52.39
2022-10-05T10:05:53.684Z,53.30
2022-10-05T10:08:39.607Z,53.95
2022-10-05T10:11:26.016Z,54.54
2022-10-05T10:15:13.059Z,54.61
2022-10-05T10:21:41.861Z,53.78
2022-10-05T10:27:37.847Z,53.00
2022-10-05T10:30:27.609Z,53.25
2022-10-05T10:33:15.737Z,51.81
2022-10-05T10:35:46.307Z,51.97
2022-10-05T10:38:31.084Z,50.75
2022-10-05T10:41:29.226Z,51.86
2022-10-05T10:47:34.606Z,53.17
2022-10-05T10:50:28.380Z,52.69
2022-10-05T10:53:41.291Z,51.26
2022-10-05T10:56:38.852Z,50.73
2022-10-05T10:59:35.410Z,50.33
2022-10-05T11:02:22.318Z,50.23
2022-10-05T11:04:57.695Z,49.75
2022-10-05T11:07:37.287Z,50.71
2022-10-05T11:10:26.061Z,49.52
2022-10-05T11:13:25.226Z,50.62
2022-10-05T11:15:57.879Z,51.47
2022-10-05T11:18:28.632Z,52.08
2022-10-05T11:21:15.245Z,51.59
2022-10-05T11:23:53.647Z,51.08
2022-10-05T11:26:42.893Z,51.73
2022-10-05T11:32:51.466Z,51.21
2022-10-05T11:35:28.299Z,51.38
2022-10-05T11:38:15.329Z,51.73
2022-10-05T11:41:17.575Z,51.25
2022-10-05T11:43:57.146Z,47.74
2022-10-05T11:46:26.029Z,48.85
2022-10-05T11:49:03.222Z,49.24
2022-10-05T11:51:45.458Z,47.50
2022-10-05T11:54:25.169Z,47.73
2022-10-05T11:59:49.233Z,48.51
2022-10-05T12:02:31.330Z,47.49
2022-10-05T12:05:01.374Z,47.06
2022-10-05T12:07:35.449Z,47.83
2022-10-05T12:10:18.124Z,47.83
2022-10-05T12:12:51.149Z,47.88
2022-10-05T12:15:25.089Z,47.54
2022-10-05T12:18:04.733Z,45.66
2022-10-05T12:20:42.530Z,43.68
2022-10-05T12:23:23.770Z,44.37
2022-10-05T12:25:55.140Z,45.92
2022-10-05T12:28:31.452Z,44.96
2022-10-05T12:31:04.605Z,45.50
2022-10-05T12:33:34.332Z,44.41
2022-10-05T12:36:12.115Z,43.14
2022-10-05T12:38:47.960Z,42.15
2022-10-05T12:41:19.639Z,42.29
2022-10-05T12:43:51.000Z,42.56
2022-10-05T12:46:28.225Z,41.82
2022-10-05T12:49:35.286Z,42.42
2022-10-05T12:52:05.730Z,41.83
2022-10-05T12:54:43.442Z,41.87
2022-10-05T12:57:21.850Z,41.59
2022-10-05T13:03:08.613Z,40.35
2022-10-05T13:05:41.038Z,40.35
2022-10-05T13:08:21.560Z,41.75
2022-10-05T13:13:35.927Z,42.47
2022-10-05T13:16:07.414Z,41.81
2022-10-05T13:18:41.899Z,42.57
2022-10-05T13:21:19.474Z,42.32
2022-10-05T13:23:57.132Z,41.47
2022-10-05T13:26:29.474Z,42.22
2022-10-05T13:29:01.686Z,43.19
2022-10-05T13:31:48.442Z,43.36
2022-10-05T13:34:27.417Z,42.81
2022-10-05T13:36:59.966Z,42.03
2022-10-05T13:39:36.877Z,42.20
2022-10-05T13:42:13.811Z,43.02
2022-10-05T13:44:43.904Z,41.98
2022-10-05T13:47:16.763Z,42.19
2022-10-05T13:49:55.789Z,43.16
2022-10-05T13:52:36.882Z,43.91
2022-10-05T13:55:08.260Z,43.20
2022-10-05T13:57:45.258Z,43.06
2022-10-05T14:00:25.607Z,42.79
2022-10-05T14:03:03.509Z,43.04
2022-10-05T14:05:33.192Z,42.96
2022-10-05T14:08:13.637Z,44.28
2022-10-05T14:10:46.880Z,43.22
2022-10-05T14:13:28.184Z,43.37
2022-10-05T14:15:57.180Z,43.49
2022-10-05T14:18:28.786Z,44.51
2022-10-05T14:21:05.478Z,44.22
2022-10-05T14:23:41.510Z,44.12
2022-10-05T14:26:18.106Z,44.83
2022-10-05T14:28:57.647Z,45.45
2022-10-05T14:31:30.574Z,45.71
2022-10-05T14:34:27.274Z,45.84
2022-10-05T14:37:04.837Z,46.19
2022-10-05T14:39:41.544Z,46.56
2022-10-05T14:42:14.882Z,46.31
2022-10-05T14:44:47.751Z,47.03
2022-10-05T14:47:28.083Z,47.28
2022-10-05T14:50:14.011Z,46.70
2022-10-05T14:52:53.556Z,47.21
2022-10-05T14:55:35.538Z,47.53
2022-10-05T14:58:21.197Z,48.69
2022-10-05T15:00:50.613Z,48.41
2022-10-05T15:03:26.487Z,48.75
2022-10-05T15:06:02.022Z,48.97
2022-10-05T15:08:49.472Z,48.88
2022-10-05T15:11:19.101Z,49.51
2022-10-05T15:13:49.482Z,49.80
2022-10-05T15:16:19.934Z,50.29
2022-10-05T15:18:50.867Z,50.35
2022-10-05T15:21:31.412Z,50.95
2022-10-05T15:24:12.080Z,50.89
2022-10-05T15:26:45.002Z,50.92
2022-10-05T15:29:19.056Z,51.24
2022-10-05T15:32:01.687Z,51.47
2022-10-05T15:34:36.484Z,51.86
2022-10-05T15:37:12.400Z,52.62
2022-10-05T15:39:44.836Z,52.41
2022-10-05T15:42:21.372Z,52.97
2022-10-05T15:44:54.082Z,53.12
2022-10-05T15:47:23.895Z,53.56
2022-10-05T15:49:57.473Z,53.74
2022-10-05T15:52:35.747Z,53.98
2022-10-05T15:55:11.194Z,54.35
2022-10-05T15:57:40.775Z,53.27
2022-10-05T16:00:10.919Z,53.47
2022-10-05T16:02:44.255Z,53.93
2022-10-05T16:05:43.875Z,54.24
2022-10-05T16:08:33.538Z,54.49
2022-10-05T16:11:03.872Z,54.90
2022-10-05T16:13:38.478Z,55.29
2022-10-05T16:16:23.574Z,55.34
2022-10-05T16:18:55.068Z,55.63
2022-10-05T16:33:00.606Z,56.94
2022-10-05T16:39:37.702Z,57.43
2022-10-05T16:46:27.691Z,57.82
2022-10-05T16:53:49.016Z,57.89
2022-10-05T17:01:01.981Z,58.26
2022-10-05T17:04:24.085Z,58.51
2022-10-05T17:11:58.532Z,58.83
2022-10-05T17:20:00.124Z,59.61
2022-10-05T17:38:41.171Z,59.97
2022-10-05T17:42:05.158Z,60.73
2022-10-05T17:45:26.655Z,60.55
2022-10-05T17:55:32.501Z,61.22
2022-10-05T18:06:09.029Z,60.93
2022-10-05T18:13:33.046Z,61.34
2022-10-05T18:26:37.798Z,61.84
2022-10-05T18:29:40.938Z,62.36
2022-10-05T19:57:04.853Z,58.30
2022-10-05T20:06:52.832Z,58.36
2022-10-05T20:19:50.814Z,58.66
2022-10-05T20:22:32.542Z,58.45
2022-10-05T20:39:15.898Z,58.91
2022-10-05T20:48:38.658Z,59.42
